Helchteren, Belgium
Current Conditions -  °F | °C
As of 3:25 AM on Saturday 29 Nov 2014 (Local Time) from EBBL Reporting Station
Clear Clear  
Wind Chill: 32°   Ceiling: Unl
Heat Index: 39°   Visibility: 4mi
Dew Point: 36°   Wind: 10mph
Humidity: 87%   Direction: 80°E
Pressure: 29.85"   Gusts: NA
Location:  51.06°N, 5.38°E
Report Text: EBBL 290225Z AUTO 08009KT 6000 NCD 04/02 Q1011 WHT
Loading
Personal Weather Stations






























Interactive Weather Map New forecast layout! Learn more

10-Day Weather Forecast

Advertisements
Track Severe Weather on mobile